Mill Village, Pennsylvania
Current Conditions -  °F | °C
As of 2:51 PM on Saturday 25 Oct 2014 (Local Time) from KERI Reporting Station
Overcast Overcast  
Wind Chill: 60°   Ceiling: 2000
Heat Index: 60°   Visibility: 8mi
Dew Point: 52°   Wind: 21mph
Humidity: 75%   Direction: 260°W
Pressure: 29.73"   Gusts: 31mph
Location:  41.88°N, 79.97°W
Report Text: KERI 251851Z 26018G27KT 8SM OVC020 16/11 A2973 RMK AO2 PK WND 26031/1826 SLP066 T01560111
Loading
Personal Weather Stations






























Interactive Weather Map New forecast layout! Learn more

10-Day Weather Forecast

Advertisements
Track Severe Weather on mobile